TimeEDT,TemperatureF,Dew PointF,Humidity,Sea Level PressureIn,VisibilityMPH,Wind Direction,Wind SpeedMPH,Gust SpeedMPH,PrecipitationIn,Events,Conditions,WindDirDegrees,DateUTC
12:15 AM,62.6,59.0,88,30.23,10.0,Calm,Calm,-,N/A,,Clear,0,2013-08-17 04:15:00
12:35 AM,60.8,57.2,88,30.23,10.0,Calm,Calm,-,N/A,,Clear,0,2013-08-17 04:35:00
12:55 AM,60.8,57.2,88,30.23,10.0,SW,3.5,-,N/A,,Clear,230,2013-08-17 04:55:00
1:15 AM,62.6,57.2,82,30.23,10.0,Calm,Calm,-,N/A,,Clear,0,2013-08-17 05:15:00
1:35 AM,60.8,57.2,88,30.23,10.0,Calm,Calm,-,N/A,,Clear,0,2013-08-17 05:35:00
1:55 AM,60.8,57.2,88,30.23,10.0,Calm,Calm,-,N/A,,Clear,0,2013-08-17 05:55:00
2:15 AM,60.8,59.0,94,30.23,10.0,West,3.5,-,N/A,,Clear,260,2013-08-17 06:15:00
2:35 AM,60.8,57.2,88,30.23,10.0,Calm,Calm,-,N/A,,Clear,0,2013-08-17 06:35:00
2:55 AM,60.8,57.2,88,30.23,10.0,Calm,Calm,-,N/A,,Clear,0,2013-08-17 06:55:00
3:15 AM,59.0,57.2,94,30.23,10.0,NW,3.5,-,N/A,,Clear,310,2013-08-17 07:15:00
3:35 AM,59.0,57.2,94,30.23,10.0,Calm,Calm,-,N/A,,Clear,0,2013-08-17 07:35:00
3:55 AM,60.8,55.4,82,30.24,10.0,Calm,Calm,-,N/A,,Clear,0,2013-08-17 07:55:00
4:15 AM,57.2,57.2,100,30.24,10.0,Calm,Calm,-,N/A,,Clear,0,2013-08-17 08:15:00
4:35 AM,57.2,55.4,94,30.24,10.0,Calm,Calm,-,N/A,,Clear,0,2013-08-17 08:35:00
4:55 AM,57.2,55.4,94,30.24,10.0,Calm,Calm,-,N/A,,Clear,0,2013-08-17 08:55:00
5:15 AM,57.2,55.4,94,30.24,10.0,Calm,Calm,-,N/A,,Clear,0,2013-08-17 09:15:00
5:35 AM,57.2,55.4,94,30.24,10.0,NW,3.5,-,N/A,,Clear,320,2013-08-17 09:35:00
5:55 AM,59.0,53.6,82,30.25,10.0,Calm,Calm,-,N/A,,Clear,0,2013-08-17 09:55:00
6:15 AM,57.2,53.6,88,30.26,10.0,NW,3.5,-,N/A,,Clear,320,2013-08-17 10:15:00
6:35 AM,60.8,53.6,77,30.25,10.0,NNW,4.6,-,N/A,,Clear,340,2013-08-17 10:35:00
6:55 AM,60.8,53.6,77,30.26,10.0,NNW,4.6,-,N/A,,Clear,340,2013-08-17 10:55:00
7:15 AM,62.6,55.4,77,30.27,10.0,NNW,4.6,-,N/A,,Clear,340,2013-08-17 11:15:00
7:35 AM,64.4,55.4,73,30.27,10.0,NNW,4.6,-,N/A,,Clear,330,2013-08-17 11:35:00
7:55 AM,66.2,55.4,68,30.27,10.0,North,6.9,-,N/A,,Clear,350,2013-08-17 11:55:00
8:15 AM,66.2,55.4,68,30.27,10.0,NNW,6.9,-,N/A,,Clear,340,2013-08-17 12:15:00
8:35 AM,66.2,57.2,73,30.28,10.0,NNW,6.9,-,N/A,,Clear,340,2013-08-17 12:35:00
8:55 AM,69.8,57.2,64,30.28,10.0,North,5.8,-,N/A,,Clear,10,2013-08-17 12:55:00
9:15 AM,69.8,57.2,64,30.28,10.0,North,4.6,-,N/A,,Clear,360,2013-08-17 13:15:00
9:35 AM,71.6,57.2,60,30.29,10.0,NNW,5.8,-,N/A,,Clear,340,2013-08-17 13:35:00
9:55 AM,71.6,57.2,60,30.29,10.0,ENE,4.6,-,N/A,,Clear,60,2013-08-17 13:55:00
10:15 AM,73.4,57.2,57,30.29,10.0,NNE,4.6,-,N/A,,Clear,20,2013-08-17 14:15:00
10:35 AM,75.2,55.4,50,30.29,10.0,North,4.6,-,N/A,,Clear,360,2013-08-17 14:35:00
10:55 AM,75.2,53.6,47,30.30,10.0,North,5.8,-,N/A,,Clear,350,2013-08-17 14:55:00
11:15 AM,75.2,55.4,50,30.29,10.0,NW,8.1,-,N/A,,Clear,320,2013-08-17 15:15:00
11:35 AM,77.0,55.4,47,30.29,10.0,North,6.9,-,N/A,,Clear,10,2013-08-17 15:35:00
11:55 AM,77.0,53.6,44,30.28,10.0,NW,6.9,-,N/A,,Clear,320,2013-08-17 15:55:00
12:15 PM,78.8,51.8,39,30.28,10.0,NE,3.5,-,N/A,,Clear,40,2013-08-17 16:15:00
12:35 PM,78.8,51.8,39,30.27,10.0,NW,3.5,-,N/A,,Clear,310,2013-08-17 16:35:00
12:55 PM,78.8,51.8,39,30.27,10.0,NNE,5.8,-,N/A,,Clear,20,2013-08-17 16:55:00
1:15 PM,77.0,53.6,44,30.27,10.0,NNE,4.6,-,N/A,,Clear,20,2013-08-17 17:15:00
1:35 PM,78.8,51.8,39,30.27,9.0,North,5.8,-,N/A,,Scattered Clouds,10,2013-08-17 17:35:00
1:55 PM,78.8,50.0,36,30.27,10.0,ESE,3.5,-,N/A,,Scattered Clouds,120,2013-08-17 17:55:00
2:15 PM,78.8,53.6,42,30.27,9.0,ENE,3.5,-,N/A,,Scattered Clouds,60,2013-08-17 18:15:00
2:35 PM,77.0,53.6,44,30.26,10.0,NNE,3.5,-,N/A,,Partly Cloudy,20,2013-08-17 18:35:00
2:55 PM,78.8,51.8,39,30.26,10.0,SW,3.5,-,N/A,,Clear,220,2013-08-17 18:55:00
3:15 PM,78.8,53.6,42,30.26,10.0,NE,3.5,-,N/A,,Scattered Clouds,50,2013-08-17 19:15:00
3:35 PM,78.8,55.4,44,30.25,10.0,ENE,4.6,-,N/A,,Mostly Cloudy,60,2013-08-17 19:35:00
3:55 PM,77.0,59.0,54,30.25,10.0,South,6.9,-,N/A,,Partly Cloudy,180,2013-08-17 19:55:00
4:15 PM,78.8,57.2,47,30.25,10.0,South,4.6,-,N/A,,Mostly Cloudy,180,2013-08-17 20:15:00
4:35 PM,77.0,57.2,50,30.25,10.0,SSW,4.6,-,N/A,,Partly Cloudy,210,2013-08-17 20:35:00
4:55 PM,78.8,57.2,47,30.26,10.0,SSW,4.6,-,N/A,,Clear,200,2013-08-17 20:55:00
5:15 PM,75.2,57.2,53,30.26,10.0,SSW,4.6,-,N/A,,Partly Cloudy,210,2013-08-17 21:15:00
5:35 PM,75.2,57.2,53,30.26,10.0,SSW,5.8,-,N/A,,Partly Cloudy,210,2013-08-17 21:35:00
5:55 PM,75.2,57.2,53,30.26,10.0,SW,3.5,-,N/A,,Clear,220,2013-08-17 21:55:00
6:15 PM,73.4,57.2,57,30.26,10.0,SSW,3.5,-,N/A,,Clear,210,2013-08-17 22:15:00
6:35 PM,73.4,57.2,57,30.26,10.0,South,3.5,-,N/A,,Clear,180,2013-08-17 22:35:00
6:55 PM,71.6,59.0,64,30.27,10.0,SSW,3.5,-,N/A,,Clear,210,2013-08-17 22:55:00
7:15 PM,71.6,57.2,60,30.26,10.0,SW,3.5,-,N/A,,Clear,220,2013-08-17 23:15:00
7:35 PM,71.6,55.4,57,30.27,10.0,Calm,Calm,-,N/A,,Clear,0,2013-08-17 23:35:00
7:55 PM,69.8,55.4,60,30.27,10.0,SW,3.5,-,N/A,,Clear,220,2013-08-17 23:55:00
8:15 PM,69.8,57.2,64,30.27,10.0,Calm,Calm,-,N/A,,Clear,0,2013-08-18 00:15:00
8:35 PM,69.8,57.2,64,30.27,10.0,South,4.6,-,N/A,,Clear,190,2013-08-18 00:35:00
8:55 PM,68.0,60.8,78,30.28,10.0,Calm,Calm,-,N/A,,Clear,0,2013-08-18 00:55:00
9:15 PM,66.2,60.8,83,30.28,10.0,Calm,Calm,-,N/A,,Clear,0,2013-08-18 01:15:00
9:35 PM,66.2,60.8,83,30.29,10.0,Calm,Calm,-,N/A,,Clear,0,2013-08-18 01:35:00
9:55 PM,66.2,62.6,88,30.29,10.0,SSW,4.6,-,N/A,,Clear,200,2013-08-18 01:55:00
10:15 PM,66.2,62.6,88,30.29,10.0,SSW,3.5,-,N/A,,Clear,200,2013-08-18 02:15:00
10:35 PM,66.2,62.6,88,30.29,10.0,South,3.5,-,N/A,,Clear,180,2013-08-18 02:35:00
10:55 PM,64.4,62.6,94,30.30,10.0,SSW,4.6,-,N/A,,Clear,200,2013-08-18 02:55:00
11:15 PM,66.2,64.4,94,30.30,10.0,Calm,Calm,-,N/A,,Clear,0,2013-08-18 03:15:00
11:35 PM,66.2,62.6,88,30.30,10.0,Calm,Calm,-,N/A,,Clear,0,2013-08-18 03:35:00
11:55 PM,66.2,64.4,94,30.29,10.0,Calm,Calm,-,N/A,,Clear,0,2013-08-18 03:55:00